Time;durP1;ratioP1;P1;durP2;ratioP2;P2;SDS_P1;SDS_P2;PMS_P1;PMS_P2;Temp;Humidity;BMP_temperature;BMP_pressure;BME280_temperature;BME280_humidity;BME280_pressure;Samples;Min_cycle;Max_cycle;Signal;HPM_P1;HPM_P2
2023/06/29 00:02:02;;;;;;;1.00;0.90;;;;;;;14.32;100.00;97872.38;1711017;75;677793;-73
2023/06/29 00:04:32;;;;;;;0.50;0.50;;;;;;;14.37;100.00;97879.16;1702132;75;745437;-73
2023/06/29 00:07:05;;;;;;;0.80;0.75;;;;;;;14.32;100.00;97868.88;1710242;75;675378;-77
2023/06/29 00:09:35;;;;;;;0.70;0.60;;;;;;;14.31;100.00;97870.09;1702074;75;736088;-73
2023/06/29 00:12:06;;;;;;;0.80;0.80;;;;;;;14.47;100.00;97859.13;1710910;75;679415;-71
2023/06/29 00:14:36;;;;;;;0.90;0.80;;;;;;;14.18;100.00;97857.53;1702033;75;748524;-71
2023/06/29 00:17:07;;;;;;;0.85;0.70;;;;;;;14.10;100.00;97864.03;1710169;75;681745;-71
2023/06/29 00:19:38;;;;;;;0.95;0.85;;;;;;;13.90;100.00;97864.94;1701411;75;735975;-69
2023/06/29 00:22:13;;;;;;;1.00;0.90;;;;;;;14.02;100.00;97869.22;1709948;75;763417;-75
2023/06/29 00:24:45;;;;;;;1.55;1.10;;;;;;;13.63;100.00;97870.53;1701436;75;747860;-72
2023/06/29 00:27:16;;;;;;;1.00;0.90;;;;;;;13.68;100.00;97865.56;1710835;75;678096;-74
2023/06/29 00:29:46;;;;;;;1.20;0.90;;;;;;;13.88;100.00;97875.66;1700988;75;751592;-74
2023/06/29 00:32:17;;;;;;;1.90;1.00;;;;;;;13.73;100.00;97881.34;1710845;75;670816;-73
2023/06/29 00:34:47;;;;;;;0.80;0.80;;;;;;;13.68;100.00;97877.31;1701523;75;738971;-75
2023/06/29 00:37:20;;;;;;;2.30;0.90;;;;;;;13.73;100.00;97873.84;1710810;75;671152;-75
2023/06/29 00:39:51;;;;;;;1.25;0.80;;;;;;;13.69;100.00;97878.84;1700314;75;808868;-70
2023/06/29 00:42:21;;;;;;;1.30;1.10;;;;;;;13.47;100.00;97878.69;1710789;75;681722;-70
2023/06/29 00:44:52;;;;;;;0.90;0.80;;;;;;;13.67;100.00;97877.81;1701356;75;736311;-71
2023/06/29 00:47:24;;;;;;;1.05;0.80;;;;;;;13.79;100.00;97871.13;1709633;75;746518;-72
2023/06/29 00:49:54;;;;;;;1.15;0.90;;;;;;;13.98;100.00;97868.72;1701763;75;746910;-70
2023/06/29 00:52:27;;;;;;;1.45;0.70;;;;;;;13.65;100.00;97870.06;1710828;75;680608;-70
2023/06/29 00:55:03;;;;;;;1.00;0.90;;;;;;;13.46;100.00;97875.19;1702184;75;727907;-71
2023/06/29 00:57:33;;;;;;;0.90;0.90;;;;;;;13.36;100.00;97862.88;1710364;75;674297;-70
2023/06/29 01:00:05;;;;;;;0.85;0.80;;;;;;;13.29;100.00;97872.31;1701733;75;751826;-71
2023/06/29 01:02:40;;;;;;;1.45;0.90;;;;;;;13.41;100.00;97875.91;1710118;75;674565;-72
2023/06/29 01:05:12;;;;;;;1.20;1.00;;;;;;;13.27;100.00;97868.53;1701482;75;762940;-70
2023/06/29 01:07:52;;;;;;;1.20;1.10;;;;;;;13.31;100.00;97869.09;1710888;75;675066;-73
2023/06/29 01:10:29;;;;;;;1.05;0.90;;;;;;;13.34;100.00;97870.84;1701778;75;764622;-70
2023/06/29 01:13:02;;;;;;;0.70;0.70;;;;;;;13.31;100.00;97866.34;1701852;75;684001;-71
2023/06/29 01:15:33;;;;;;;1.20;0.90;;;;;;;13.42;100.00;97861.66;1709445;75;791950;-70
2023/06/29 01:18:04;;;;;;;1.10;0.90;;;;;;;13.11;100.00;97865.16;1702391;75;674851;-72
2023/06/29 01:20:36;;;;;;;0.70;0.70;;;;;;;13.15;100.00;97868.41;1710963;75;673182;-74
2023/06/29 01:23:14;;;;;;;0.60;0.60;;;;;;;13.32;100.00;97867.84;1702198;75;672231;-73
2023/06/29 01:25:50;;;;;;;0.80;0.80;;;;;;;13.23;100.00;97868.75;1711253;75;671728;-73
2023/06/29 01:28:20;;;;;;;1.05;0.80;;;;;;;13.08;100.00;97863.38;1703609;75;674728;-72
2023/06/29 01:30:51;;;;;;;0.95;0.70;;;;;;;13.16;100.00;97866.44;1711091;75;675451;-72
2023/06/29 01:33:25;;;;;;;1.20;0.90;;;;;;;12.99;100.00;97861.56;1702520;75;685289;-70
2023/06/29 01:36:03;;;;;;;1.00;0.90;;;;;;;13.11;100.00;97859.66;1710784;75;678001;-70
2023/06/29 01:38:42;;;;;;;0.70;0.60;;;;;;;12.98;100.00;97862.03;1699597;75;888534;-75
2023/06/29 01:41:19;;;;;;;1.30;1.00;;;;;;;12.87;100.00;97857.22;1702442;75;671708;-75
2023/06/29 01:43:50;;;;;;;1.10;0.80;;;;;;;12.81;100.00;97864.63;1710300;75;690161;-74
2023/06/29 01:46:22;;;;;;;1.80;1.10;;;;;;;12.75;100.00;97856.34;1702213;75;678087;-72
2023/06/29 01:48:53;;;;;;;1.10;1.00;;;;;;;12.86;100.00;97855.69;1710361;75;674538;-73
2023/06/29 01:51:24;;;;;;;1.10;1.00;;;;;;;12.97;100.00;97855.81;1702176;75;675815;-72
2023/06/29 01:53:54;;;;;;;1.00;0.80;;;;;;;12.82;100.00;97866.16;1710270;75;672224;-71
2023/06/29 01:56:27;;;;;;;0.90;0.80;;;;;;;12.99;100.00;97867.06;1702553;75;671993;-72
2023/06/29 01:59:01;;;;;;;0.60;0.60;;;;;;;12.92;100.00;97861.25;1710303;75;673187;-72
2023/06/29 02:01:31;;;;;;;0.80;0.80;;;;;;;12.85;100.00;97854.19;1702482;75;687234;-72
2023/06/29 02:04:04;;;;;;;0.60;0.60;;;;;;;12.87;100.00;97850.94;1710488;75;689615;-73
2023/06/29 02:06:34;;;;;;;1.00;0.90;;;;;;;12.51;100.00;97850.38;1701388;75;757806;-71
2023/06/29 02:09:04;;;;;;;0.90;0.70;;;;;;;12.82;100.00;97855.19;1709946;75;675773;-72
2023/06/29 02:11:37;;;;;;;0.80;0.70;;;;;;;12.61;100.00;97856.47;1701986;75;740678;-74
2023/06/29 02:14:08;;;;;;;1.10;1.00;;;;;;;12.60;100.00;97852.94;1710705;75;669966;-70
2023/06/29 02:16:38;;;;;;;1.20;1.00;;;;;;;12.45;100.00;97853.06;1701824;75;735054;-72
2023/06/29 02:19:08;;;;;;;1.15;0.95;;;;;;;12.43;100.00;97858.28;1710598;75;678202;-72
2023/06/29 02:21:39;;;;;;;1.45;1.20;;;;;;;12.51;100.00;97864.13;1701736;75;765272;-69
2023/06/29 02:24:09;;;;;;;0.85;0.85;;;;;;;12.47;100.00;97858.06;1710869;75;692825;-72
2023/06/29 02:26:42;;;;;;;1.00;0.90;;;;;;;12.18;100.00;97848.03;1702964;75;746465;-74
2023/06/29 02:29:12;;;;;;;0.80;0.80;;;;;;;12.34;100.00;97848.22;1711721;75;674673;-72
2023/06/29 02:31:42;;;;;;;0.85;0.85;;;;;;;12.14;100.00;97842.72;1701796;75;739358;-71
2023/06/29 02:34:13;;;;;;;1.05;0.95;;;;;;;12.35;100.00;97846.22;1710318;75;697614;-77
2023/06/29 02:36:43;;;;;;;1.40;0.85;;;;;;;12.16;100.00;97848.50;1701227;75;762278;-70
2023/06/29 02:39:13;;;;;;;0.95;0.80;;;;;;;12.15;100.00;97847.75;1710129;75;674276;-75
2023/06/29 02:41:46;;;;;;;0.70;0.70;;;;;;;12.05;100.00;97849.13;1686490;75;1929739;-72
2023/06/29 02:44:16;;;;;;;1.10;0.80;;;;;;;12.14;100.00;97848.22;1710122;75;676768;-73
2023/06/29 02:46:46;;;;;;;1.20;1.00;;;;;;;12.10;100.00;97859.41;1701276;75;755573;-69
2023/06/29 02:49:16;;;;;;;0.95;0.90;;;;;;;12.27;100.00;97859.63;1710470;75;667971;-72
2023/06/29 02:51:47;;;;;;;2.35;1.00;;;;;;;12.01;100.00;97859.56;1700987;75;747042;-71
2023/06/29 02:54:17;;;;;;;0.90;0.80;;;;;;;12.10;100.00;97861.41;1710046;75;669493;-73
2023/06/29 02:56:50;;;;;;;1.20;0.90;;;;;;;11.96;100.00;97871.22;1701746;75;755637;-70
2023/06/29 02:59:20;;;;;;;1.60;0.80;;;;;;;11.90;100.00;97867.63;1710895;75;674483;-71
2023/06/29 03:01:50;;;;;;;1.10;0.90;;;;;;;11.97;100.00;97861.75;1701480;75;754875;-72
2023/06/29 03:04:20;;;;;;;0.90;0.70;;;;;;;11.93;100.00;97869.44;1709702;75;687973;-70
2023/06/29 03:06:51;;;;;;;1.85;1.10;;;;;;;12.02;100.00;97869.28;1701257;75;743996;-70
2023/06/29 03:09:21;;;;;;;1.65;1.00;;;;;;;11.99;100.00;97875.00;1709721;75;678532;-71
2023/06/29 03:11:54;;;;;;;1.10;1.00;;;;;;;12.10;100.00;97864.16;1701610;75;746265;-73
2023/06/29 03:14:25;;;;;;;1.50;0.90;;;;;;;12.09;100.00;97868.13;1709874;75;672511;-73
2023/06/29 03:16:55;;;;;;;0.80;0.80;;;;;;;12.01;100.00;97861.56;1701048;75;760437;-70
2023/06/29 03:19:25;;;;;;;1.35;0.95;;;;;;;11.82;100.00;97863.78;1709536;75;757288;-75
2023/06/29 03:21:55;;;;;;;0.90;0.90;;;;;;;11.67;100.00;97872.06;1701821;75;742394;-70
2023/06/29 03:24:25;;;;;;;1.40;0.95;;;;;;;11.86;100.00;97870.56;1709740;75;687381;-71
2023/06/29 03:26:58;;;;;;;2.70;1.40;;;;;;;11.79;100.00;97872.97;1701050;75;758203;-70
2023/06/29 03:29:29;;;;;;;1.40;1.30;;;;;;;11.66;100.00;97871.28;1710543;75;672360;-71
2023/06/29 03:31:59;;;;;;;2.50;1.65;;;;;;;11.65;100.00;97875.25;1701683;75;752292;-72
2023/06/29 03:34:29;;;;;;;2.20;1.40;;;;;;;11.62;100.00;97868.00;1710318;75;679081;-70
2023/06/29 03:37:00;;;;;;;2.35;1.45;;;;;;;11.57;100.00;97874.16;1701687;75;753932;-73
2023/06/29 03:39:30;;;;;;;3.05;1.60;;;;;;;11.90;100.00;97879.34;1710528;75;677692;-72
2023/06/29 03:42:02;;;;;;;1.20;1.10;;;;;;;12.00;100.00;97866.28;1700967;75;751102;-73
2023/06/29 03:44:34;;;;;;;1.30;1.00;;;;;;;12.05;100.00;97873.06;1710578;75;677118;-74
2023/06/29 03:47:04;;;;;;;1.10;1.00;;;;;;;12.09;100.00;97870.88;1700476;75;752429;-72
2023/06/29 03:49:34;;;;;;;1.15;1.00;;;;;;;12.15;100.00;97871.69;1710105;75;669242;-70
2023/06/29 03:52:04;;;;;;;1.10;0.90;;;;;;;12.24;100.00;97874.31;1700889;75;745440;-73
2023/06/29 03:54:34;;;;;;;1.00;0.90;;;;;;;12.22;100.00;97874.03;1710408;75;675202;-74
2023/06/29 03:57:08;;;;;;;0.80;0.80;;;;;;;12.34;100.00;97870.19;1701634;75;746457;-73
2023/06/29 03:59:38;;;;;;;1.00;0.90;;;;;;;12.35;100.00;97868.19;1710730;75;668270;-73
2023/06/29 04:02:09;;;;;;;1.10;1.00;;;;;;;12.32;100.00;97872.66;1701500;75;740060;-73
2023/06/29 04:04:39;;;;;;;0.95;0.85;;;;;;;12.23;100.00;97872.03;1710273;75;670126;-73
2023/06/29 04:07:09;;;;;;;2.95;1.40;;;;;;;12.21;100.00;97877.25;1701687;75;743517;-73
2023/06/29 04:09:39;;;;;;;2.25;1.05;;;;;;;12.40;100.00;97872.22;1709812;75;671879;-75
2023/06/29 04:12:13;;;;;;;1.15;1.05;;;;;;;12.13;100.00;97869.44;1701130;75;772410;-74
2023/06/29 04:14:43;;;;;;;1.00;0.80;;;;;;;12.26;100.00;97877.31;1710180;75;676721;-72
2023/06/29 04:17:13;;;;;;;3.75;1.50;;;;;;;12.05;100.00;97876.56;1700986;75;759961;-76
2023/06/29 04:19:43;;;;;;;2.65;1.80;;;;;;;12.09;100.00;97879.84;1709868;75;670295;-74
2023/06/29 04:22:13;;;;;;;2.80;1.90;;;;;;;12.17;100.00;97880.22;1701252;75;755856;-73
2023/06/29 04:24:44;;;;;;;4.00;1.75;;;;;;;12.14;100.00;97878.41;1710591;75;668312;-73
2023/06/29 04:27:17;;;;;;;1.45;1.35;;;;;;;12.33;100.00;97868.66;1701448;75;750916;-71
2023/06/29 04:29:47;;;;;;;1.80;1.50;;;;;;;12.39;100.00;97878.94;1710371;75;667056;-72
2023/06/29 04:32:18;;;;;;;2.95;2.00;;;;;;;12.31;100.00;97873.91;1701886;75;754155;-74
2023/06/29 04:34:49;;;;;;;3.20;1.80;;;;;;;12.46;100.00;97875.78;1710854;75;674216;-73
2023/06/29 04:37:19;;;;;;;3.30;1.80;;;;;;;12.54;100.00;97879.63;1701510;75;746880;-72
2023/06/29 04:39:49;;;;;;;3.80;2.10;;;;;;;12.49;100.00;97878.31;1711138;75;671956;-73
2023/06/29 04:42:25;;;;;;;1.75;1.45;;;;;;;12.86;100.00;97876.94;1701776;75;740472;-72
2023/06/29 04:44:56;;;;;;;1.50;1.40;;;;;;;12.72;100.00;97879.31;1702185;75;685200;-71
2023/06/29 04:47:26;;;;;;;1.80;1.50;;;;;;;12.88;100.00;97879.94;1709499;75;789041;-74
2023/06/29 04:49:56;;;;;;;2.20;1.40;;;;;;;13.07;100.00;97881.13;1700966;75;826498;-72
2023/06/29 04:52:26;;;;;;;1.70;1.30;;;;;;;13.10;100.00;97879.38;1709804;75;674183;-73
2023/06/29 04:54:57;;;;;;;1.40;0.90;;;;;;;13.10;100.00;97880.13;1702092;75;673890;-73
2023/06/29 04:57:29;;;;;;;1.60;0.90;;;;;;;13.14;100.00;97877.19;1710314;75;678831;-73
2023/06/29 05:00:00;;;;;;;5.30;2.40;;;;;;;13.23;100.00;97882.50;1702250;75;729421;-75
2023/06/29 05:02:30;;;;;;;3.50;2.00;;;;;;;13.33;100.00;97883.84;1696980;75;1840162;-73
2023/06/29 05:05:00;;;;;;;2.30;1.60;;;;;;;13.46;100.00;97880.69;1703162;75;676200;-76
2023/06/29 05:07:32;;;;;;;1.40;1.30;;;;;;;13.48;100.00;97886.44;1698690;75;1772664;-72
2023/06/29 05:10:02;;;;;;;1.40;1.10;;;;;;;13.67;100.00;97883.31;1703063;75;684256;-72
2023/06/29 05:12:35;;;;;;;1.10;1.00;;;;;;;13.68;100.00;97891.06;1614984;75;8778650;-76
2023/06/29 05:15:06;;;;;;;2.00;1.30;;;;;;;13.75;100.00;97892.63;1703832;75;678734;-72
2023/06/29 05:17:37;;;;;;;1.55;1.10;;;;;;;13.84;100.00;97884.16;1711196;75;682076;-72
2023/06/29 05:20:10;;;;;;;1.30;1.00;;;;;;;13.96;100.00;97894.00;1703557;75;678083;-74
2023/06/29 05:22:40;;;;;;;1.45;1.10;;;;;;;14.06;100.00;97889.03;1710802;75;679755;-74
2023/06/29 05:25:14;;;;;;;1.00;1.00;;;;;;;14.09;100.00;97879.78;1701900;75;683113;-74
2023/06/29 05:27:47;;;;;;;0.80;0.80;;;;;;;14.16;100.00;97887.56;1707403;75;919340;-74
2023/06/29 05:30:18;;;;;;;1.65;1.10;;;;;;;14.21;100.00;97880.56;1702622;75;677881;-72
2023/06/29 05:32:48;;;;;;;0.90;0.80;;;;;;;14.32;100.00;97882.63;1708265;75;856752;-71
2023/06/29 05:35:19;;;;;;;0.80;0.80;;;;;;;14.45;100.00;97875.41;1701130;75;758590;-76
2023/06/29 05:37:50;;;;;;;3.40;2.20;;;;;;;14.57;100.00;97873.44;1710197;75;677153;-73
2023/06/29 05:40:20;;;;;;;3.00;2.15;;;;;;;14.77;100.00;97875.25;1701601;75;739276;-73
2023/06/29 05:42:53;;;;;;;2.10;1.70;;;;;;;14.92;98.92;97877.78;1710395;75;688342;-71
2023/06/29 05:45:23;;;;;;;2.75;1.55;;;;;;;15.02;99.07;97876.28;1701462;75;747723;-71
2023/06/29 05:47:54;;;;;;;1.50;1.40;;;;;;;14.88;95.90;97886.28;1709912;75;673142;-71
2023/06/29 05:50:25;;;;;;;1.05;0.95;;;;;;;15.04;96.25;97873.78;1702016;75;735872;-72
2023/06/29 05:52:55;;;;;;;1.60;1.00;;;;;;;15.07;93.39;97881.03;1710642;75;675103;-73
2023/06/29 05:55:25;;;;;;;0.95;0.85;;;;;;;15.15;91.92;97875.78;1701080;75;742710;-73
2023/06/29 05:57:58;;;;;;;1.90;1.50;;;;;;;15.30;92.32;97883.81;1710289;75;681961;-74
2023/06/29 06:00:28;;;;;;;1.55;1.40;;;;;;;15.27;90.96;97882.81;1701832;75;728002;-75
2023/06/29 06:02:59;;;;;;;1.50;1.20;;;;;;;15.48;91.41;97882.53;1710304;75;676467;-71
2023/06/29 06:05:31;;;;;;;1.40;1.00;;;;;;;15.86;89.86;97883.75;1701559;75;736009;-73
2023/06/29 06:08:01;;;;;;;2.95;1.95;;;;;;;16.14;84.72;97875.38;1710686;75;676526;-73
2023/06/29 06:10:31;;;;;;;3.80;2.00;;;;;;;16.18;86.52;97867.56;1700480;75;758568;-71
2023/06/29 06:13:06;;;;;;;1.55;1.20;;;;;;;15.95;86.28;97875.19;1710233;75;672863;-73
2023/06/29 06:15:37;;;;;;;2.15;1.20;;;;;;;16.35;87.45;97872.25;1702062;75;744130;-73
2023/06/29 06:18:07;;;;;;;1.75;1.40;;;;;;;16.47;85.69;97870.94;1710182;75;671373;-73
2023/06/29 06:20:37;;;;;;;2.50;1.60;;;;;;;16.59;87.44;97872.38;1702111;75;756139;-76
2023/06/29 06:23:08;;;;;;;3.45;2.15;;;;;;;16.78;85.35;97880.06;1711114;75;678102;-73
2023/06/29 06:25:41;;;;;;;4.25;2.30;;;;;;;16.96;78.76;97871.19;1702328;75;764842;-72
2023/06/29 06:28:13;;;;;;;4.10;2.00;;;;;;;17.09;79.60;97875.34;1711383;75;668814;-75
2023/06/29 06:30:44;;;;;;;4.70;2.65;;;;;;;17.27;77.42;97874.72;1701473;75;741076;-72
2023/06/29 06:33:14;;;;;;;4.40;2.80;;;;;;;17.38;84.18;97879.38;1709888;75;688904;-73
2023/06/29 06:35:44;;;;;;;8.20;3.05;;;;;;;17.47;84.10;97870.75;1700871;75;761808;-75
2023/06/29 06:38:14;;;;;;;4.35;2.60;;;;;;;17.55;81.79;97876.47;1710578;75;673917;-74
2023/06/29 06:40:45;;;;;;;3.60;2.60;;;;;;;17.49;83.04;97881.31;1701239;75;747838;-72
2023/06/29 06:43:18;;;;;;;3.60;2.20;;;;;;;17.53;80.91;97871.44;1710155;75;671756;-74
2023/06/29 06:45:48;;;;;;;8.45;2.65;;;;;;;17.71;77.65;97881.09;1701423;75;753726;-74
2023/06/29 06:48:18;;;;;;;6.10;2.40;;;;;;;17.95;77.40;97871.31;1710498;75;677289;-71
2023/06/29 06:50:49;;;;;;;2.70;1.90;;;;;;;17.79;79.42;97870.19;1701483;75;747680;-74
2023/06/29 06:53:19;;;;;;;3.00;1.90;;;;;;;18.02;80.06;97871.47;1710349;75;676355;-75
2023/06/29 06:55:49;;;;;;;4.60;2.40;;;;;;;18.04;78.13;97868.94;1699322;75;869252;-74
2023/06/29 06:58:23;;;;;;;2.55;1.90;;;;;;;18.31;78.52;97869.13;1708071;75;879875;-75
2023/06/29 07:00:54;;;;;;;4.75;2.50;;;;;;;18.17;78.48;97868.28;1701537;75;754941;-74
2023/06/29 07:03:25;;;;;;;5.50;2.70;;;;;;;18.45;78.84;97873.47;1707748;75;848343;-73
2023/06/29 07:05:55;;;;;;;3.95;2.75;;;;;;;18.71;78.87;97867.31;1701043;75;760885;-73
2023/06/29 07:08:25;;;;;;;3.60;2.50;;;;;;;18.69;78.97;97867.09;1710505;75;669909;-74
2023/06/29 07:10:56;;;;;;;4.10;2.45;;;;;;;18.78;76.24;97863.19;1701366;75;745336;-74
2023/06/29 07:13:29;;;;;;;2.90;1.80;;;;;;;18.94;77.21;97861.44;1707113;75;972595;-72
2023/06/29 07:15:59;;;;;;;2.25;1.75;;;;;;;18.97;77.39;97863.16;1700837;75;744148;-74
2023/06/29 07:18:30;;;;;;;4.25;2.15;;;;;;;19.12;76.85;97854.34;1710320;75;680937;-74
2023/06/29 07:21:00;;;;;;;4.35;2.35;;;;;;;19.13;78.37;97864.91;1700770;75;747570;-75
2023/06/29 07:23:30;;;;;;;3.30;2.60;;;;;;;19.13;77.76;97844.75;1710308;75;670325;-74
2023/06/29 07:26:00;;;;;;;3.00;2.15;;;;;;;19.70;76.89;97855.63;1701321;75;753809;-74
2023/06/29 07:28:33;;;;;;;3.20;2.00;;;;;;;19.56;72.60;97858.38;1710530;75;672876;-72
2023/06/29 07:31:04;;;;;;;5.25;2.30;;;;;;;19.50;73.27;97857.00;1701449;75;753262;-75
2023/06/29 07:33:34;;;;;;;2.80;1.70;;;;;;;19.62;74.79;97854.75;1710300;75;676441;-71
2023/06/29 07:36:04;;;;;;;4.35;2.00;;;;;;;19.75;74.00;97850.00;1701083;75;757027;-74
2023/06/29 07:38:35;;;;;;;2.55;1.70;;;;;;;20.09;71.84;97852.13;1707993;75;867716;-73
2023/06/29 07:41:05;;;;;;;3.80;2.20;;;;;;;20.05;70.11;97848.91;1698712;75;915381;-74
2023/06/29 07:43:38;;;;;;;4.00;1.60;;;;;;;20.15;69.60;97846.44;1710496;75;675519;-72
2023/06/29 07:46:10;;;;;;;3.55;2.10;;;;;;;20.57;65.41;97847.34;1701296;75;750907;-76
2023/06/29 07:48:40;;;;;;;3.55;2.00;;;;;;;20.58;65.92;97839.72;1709972;75;704715;-72
2023/06/29 07:51:11;;;;;;;4.60;2.65;;;;;;;20.66;64.40;97846.16;1701275;75;751485;-72
2023/06/29 07:53:41;;;;;;;1.85;1.60;;;;;;;20.40;64.89;97853.25;1709886;75;677511;-73
2023/06/29 07:56:11;;;;;;;6.25;1.95;;;;;;;20.58;65.86;97848.81;1701210;75;753429;-72
2023/06/29 07:58:44;;;;;;;3.05;1.75;;;;;;;20.68;64.93;97845.59;1710413;75;674834;-73
2023/06/29 08:01:14;;;;;;;3.65;1.90;;;;;;;21.06;61.87;97846.69;1701204;75;765123;-73
2023/06/29 08:03:45;;;;;;;3.30;1.65;;;;;;;20.89;58.83;97848.41;1707253;75;982489;-74
2023/06/29 08:06:15;;;;;;;3.20;1.55;;;;;;;20.94;61.96;97853.09;1702151;75;739930;-72
2023/06/29 08:08:45;;;;;;;2.30;1.70;;;;;;;21.28;58.27;97844.66;1710251;75;677146;-74
2023/06/29 08:11:16;;;;;;;2.50;1.65;;;;;;;21.28;63.48;97853.00;1701467;75;749117;-74
2023/06/29 08:13:49;;;;;;;3.75;2.00;;;;;;;21.48;62.32;97843.91;1710419;75;679949;-70
2023/06/29 08:16:19;;;;;;;2.20;1.60;;;;;;;21.26;62.10;97850.78;1701786;75;744011;-75
2023/06/29 08:18:51;;;;;;;1.95;1.40;;;;;;;21.17;62.16;97837.34;1710949;75;668948;-76
2023/06/29 08:21:22;;;;;;;3.75;1.85;;;;;;;21.72;60.03;97827.34;1701777;75;743137;-74
2023/06/29 08:23:52;;;;;;;3.70;1.65;;;;;;;21.47;61.05;97830.53;1710784;75;673728;-75
2023/06/29 08:26:22;;;;;;;2.55;1.40;;;;;;;22.05;58.60;97831.22;1701892;75;745500;-77
2023/06/29 08:28:55;;;;;;;3.80;1.80;;;;;;;21.98;58.08;97829.91;1710538;75;670529;-74
2023/06/29 08:31:25;;;;;;;2.35;1.55;;;;;;;22.10;57.92;97833.09;1701087;75;754295;-74
2023/06/29 08:33:55;;;;;;;2.45;1.55;;;;;;;22.10;55.57;97819.16;1710924;75;670358;-76
2023/06/29 08:36:28;;;;;;;1.50;1.40;;;;;;;22.04;53.49;97824.91;1701852;75;753072;-73
2023/06/29 08:38:58;;;;;;;2.40;1.60;;;;;;;22.39;54.16;97819.84;1710250;75;724352;-76
2023/06/29 08:41:28;;;;;;;2.70;1.60;;;;;;;22.45;55.61;97814.88;1700554;75;744786;-76
2023/06/29 08:44:01;;;;;;;2.10;1.40;;;;;;;22.84;53.95;97815.69;1710020;75;676766;-73
2023/06/29 08:46:32;;;;;;;1.75;1.35;;;;;;;22.83;54.82;97813.47;1699915;75;775425;-73
2023/06/29 08:49:04;;;;;;;3.55;1.60;;;;;;;22.66;52.23;97814.00;1710678;75;671283;-72
2023/06/29 08:51:36;;;;;;;3.00;1.70;;;;;;;22.50;49.76;97808.38;1701873;75;750088;-75
2023/06/29 08:54:06;;;;;;;2.80;1.50;;;;;;;22.88;49.43;97804.91;1710472;75;669045;-75
2023/06/29 08:56:38;;;;;;;2.90;1.70;;;;;;;22.65;49.41;97802.06;1701462;75;780689;-76
2023/06/29 08:59:13;;;;;;;3.00;1.50;;;;;;;22.84;50.83;97804.53;1710276;75;678076;-75
2023/06/29 09:01:44;;;;;;;2.10;1.80;;;;;;;23.38;50.99;97805.31;1702022;75;734266;-74
2023/06/29 09:04:15;;;;;;;2.50;1.70;;;;;;;23.42;50.98;97798.59;1710566;75;674112;-73
2023/06/29 09:06:45;;;;;;;2.95;1.60;;;;;;;23.39;50.29;97792.81;1701832;75;742652;-73
2023/06/29 09:09:15;;;;;;;2.25;1.25;;;;;;;23.00;51.35;97788.56;1710437;75;675247;-75
2023/06/29 09:11:46;;;;;;;4.85;1.80;;;;;;;23.10;49.02;97792.28;1701590;75;745903;-72
2023/06/29 09:14:20;;;;;;;2.50;1.45;;;;;;;23.63;48.00;97779.53;1710555;75;678737;-75
2023/06/29 09:16:57;;;;;;;2.95;1.45;;;;;;;23.72;47.50;97783.81;1701545;75;756967;-73
2023/06/29 09:19:28;;;;;;;3.10;1.30;;;;;;;23.81;46.62;97789.59;1702378;75;688588;-72
2023/06/29 09:21:59;;;;;;;3.10;1.45;;;;;;;24.07;46.43;97787.63;1710117;75;674472;-73
2023/06/29 09:24:35;;;;;;;3.00;1.70;;;;;;;23.98;45.67;97780.59;1702539;75;678623;-73
2023/06/29 09:27:05;;;;;;;3.30;1.50;;;;;;;23.81;45.80;97777.66;1710633;75;674783;-74
2023/06/29 09:29:40;;;;;;;1.30;1.00;;;;;;;23.55;47.97;97779.56;1700724;75;843386;-74
2023/06/29 09:32:17;;;;;;;2.10;1.35;;;;;;;24.61;45.39;97773.38;1710708;75;695325;-72
2023/06/29 09:34:49;;;;;;;2.50;1.10;;;;;;;23.51;47.82;97770.81;1702816;75;682349;-74
2023/06/29 09:37:20;;;;;;;1.30;1.00;;;;;;;23.79;48.03;97774.69;1698523;75;1747223;-76
2023/06/29 09:40:04;;;;;;;2.80;1.30;;;;;;;24.39;44.30;97767.31;1702030;75;760145;-75
2023/06/29 09:42:36;;;;;;;1.45;1.00;;;;;;;24.07;46.70;97764.50;1702261;75;686675;-73
2023/06/29 09:45:14;;;;;;;2.00;1.20;;;;;;;24.33;46.13;97766.06;1710270;75;675381;-73
2023/06/29 09:47:51;;;;;;;;;;;;;;;24.84;43.37;97759.22;1702351;75;675739;-76
2023/06/29 09:50:23;;;;;;;1.90;1.50;;;;;;;24.82;43.39;97759.03;1710417;75;677153;-73
2023/06/29 09:52:54;;;;;;;2.70;1.40;;;;;;;24.69;44.40;97754.47;1701675;75;758416;-74
2023/06/29 09:55:33;;;;;;;1.35;1.00;;;;;;;24.75;47.32;97749.41;1710126;75;674403;-74
2023/06/29 09:58:03;;;;;;;1.35;1.00;;;;;;;25.07;45.79;97751.34;1701613;75;755573;-71
2023/06/29 10:00:37;;;;;;;1.50;0.90;;;;;;;25.17;45.44;97754.28;1710440;75;672362;-74
2023/06/29 10:03:08;;;;;;;1.50;1.00;;;;;;;24.93;44.35;97750.19;1701399;75;747124;-72
2023/06/29 10:05:40;;;;;;;0.90;0.70;;;;;;;24.92;44.44;97748.69;1710350;75;672508;-73
2023/06/29 10:08:17;;;;;;;1.65;0.90;;;;;;;25.34;43.80;97745.16;1701935;75;737146;-75
2023/06/29 10:10:48;;;;;;;1.70;1.40;;;;;;;24.64;45.25;97742.19;1702131;75;679259;-75
2023/06/29 10:13:21;;;;;;;0.90;0.80;;;;;;;24.99;43.31;97744.31;1710059;75;676218;-75
2023/06/29 10:15:56;;;;;;;3.70;1.20;;;;;;;25.25;42.71;97729.00;1700494;75;863821;-76
2023/06/29 10:18:33;;;;;;;1.40;0.90;;;;;;;24.94;44.98;97729.25;1710569;75;675065;-73
2023/06/29 10:21:04;;;;;;;;;;;;;;;25.27;42.58;97727.09;1702200;75;672255;-75
2023/06/29 10:23:36;;;;;;;2.10;1.20;;;;;;;25.43;43.78;97732.56;1710467;75;674264;-75
2023/06/29 10:26:09;;;;;;;2.90;1.50;;;;;;;25.05;43.17;97720.38;1702264;75;680884;-75
2023/06/29 10:28:40;;;;;;;2.80;1.40;;;;;;;25.40;42.87;97731.66;1710095;75;677353;-75
2023/06/29 10:31:13;;;;;;;2.35;1.35;;;;;;;25.65;41.80;97725.94;1698317;75;986835;-71
2023/06/29 10:33:50;;;;;;;3.35;1.30;;;;;;;25.56;42.99;97723.06;1709650;75;670084;-71
2023/06/29 10:36:21;;;;;;;2.20;1.30;;;;;;;25.67;42.19;97720.50;1701574;75;725708;-74
2023/06/29 10:38:51;;;;;;;2.60;1.50;;;;;;;25.75;42.91;97714.81;1710327;75;688220;-77
2023/06/29 10:41:31;;;;;;;1.80;1.15;;;;;;;26.32;41.32;97724.94;1702026;75;751164;-74
2023/06/29 10:44:03;;;;;;;1.80;1.30;;;;;;;26.19;42.32;97722.47;1702794;75;677549;-73
2023/06/29 10:46:49;;;;;;;4.10;1.50;;;;;;;26.09;41.69;97724.50;1711353;75;677612;-75
2023/06/29 10:49:28;;;;;;;2.30;1.40;;;;;;;25.93;39.55;97718.38;1703313;75;674839;-73
2023/06/29 10:52:04;;;;;;;1.50;1.10;;;;;;;26.66;38.93;97716.97;1703752;75;679488;-73
2023/06/29 10:54:35;;;;;;;1.50;1.10;;;;;;;26.18;40.93;97709.78;1685381;75;2863972;-75
2023/06/29 10:57:10;;;;;;;2.20;1.40;;;;;;;25.99;40.37;97710.41;1703008;75;677876;-74
2023/06/29 10:59:41;;;;;;;3.40;1.35;;;;;;;26.33;40.14;97706.75;1706912;75;960480;-73
2023/06/29 11:02:15;;;;;;;2.50;1.20;;;;;;;25.91;39.57;97701.38;1700019;75;865612;-75
2023/06/29 11:04:45;;;;;;;2.80;1.30;;;;;;;26.67;39.31;97702.34;1707810;75;910875;-73
2023/06/29 11:07:18;;;;;;;1.90;1.30;;;;;;;26.84;39.26;97695.16;1701018;75;803779;-74
2023/06/29 11:09:51;;;;;;;1.75;1.10;;;;;;;26.85;38.60;97697.38;1710358;75;675899;-75
2023/06/29 11:12:21;;;;;;;1.90;1.40;;;;;;;26.78;38.03;97696.16;1702352;75;676138;-73
2023/06/29 11:14:55;;;;;;;2.25;1.25;;;;;;;27.26;39.23;97689.19;1710248;75;682394;-76
2023/06/29 11:17:28;;;;;;;1.55;1.20;;;;;;;26.38;39.90;97688.16;1701709;75;748978;-74
2023/06/29 11:19:58;;;;;;;3.20;1.65;;;;;;;27.44;38.29;97680.59;1710530;75;679426;-74
2023/06/29 11:22:30;;;;;;;4.25;1.45;;;;;;;26.94;38.91;97684.69;1701278;75;756616;-76
2023/06/29 11:25:01;;;;;;;1.95;1.30;;;;;;;27.33;38.92;97685.50;1710534;75;673651;-76
2023/06/29 11:27:32;;;;;;;2.30;1.30;;;;;;;27.12;38.57;97685.28;1701225;75;732231;-75
2023/06/29 11:30:04;;;;;;;1.75;1.10;;;;;;;27.72;38.65;97679.09;1709947;75;677534;-74
2023/06/29 11:32:38;;;;;;;2.25;1.35;;;;;;;27.90;38.02;97674.06;1701054;75;745654;-74
2023/06/29 11:35:11;;;;;;;2.80;1.30;;;;;;;27.94;39.07;97668.72;1708942;75;764041;-76
2023/06/29 11:37:42;;;;;;;3.35;1.20;;;;;;;27.84;38.30;97660.31;1701688;75;748763;-75
2023/06/29 11:40:22;;;;;;;2.90;1.20;;;;;;;28.39;38.84;97666.19;1711079;75;672272;-73
2023/06/29 11:42:53;;;;;;;2.10;1.30;;;;;;;27.85;37.93;97658.22;1702186;75;740119;-73